createdAt,value
2018-04-01T00:02:11.296Z,2.63
2018-04-01T00:04:37.147Z,1.33
2018-04-01T00:07:02.990Z,1.03
2018-04-01T00:09:28.821Z,3.00
2018-04-01T00:11:54.877Z,4.13
2018-04-01T00:14:20.757Z,2.60
2018-04-01T00:16:46.579Z,2.00
2018-04-01T00:19:13.176Z,0.50
2018-04-01T00:21:39.014Z,2.60
2018-04-01T00:24:04.844Z,0.60
2018-04-01T00:26:30.672Z,0.70
2018-04-01T00:28:56.508Z,0.70
2018-04-01T00:31:22.361Z,1.40
2018-04-01T00:33:49.245Z,1.40
2018-04-01T00:36:15.089Z,1.40
2018-04-01T00:38:40.939Z,1.33
2018-04-01T00:41:06.799Z,1.40
2018-04-01T00:43:32.637Z,0.70
2018-04-01T00:45:58.477Z,6.50
2018-04-01T00:48:24.491Z,0.60
2018-04-01T00:50:50.332Z,1.20
2018-04-01T00:53:16.168Z,1.20
2018-04-01T00:55:42.028Z,0.97
2018-04-01T00:58:08.605Z,1.40
2018-04-01T01:00:34.440Z,1.60
2018-04-01T01:03:00.281Z,0.77
2018-04-01T01:05:26.120Z,1.60
2018-04-01T01:07:51.978Z,0.80
2018-04-01T01:10:18.025Z,2.40
2018-04-01T01:12:43.856Z,0.70
2018-04-01T01:15:09.684Z,1.40
2018-04-01T01:17:35.525Z,0.53
2018-04-01T01:20:01.347Z,0.93
2018-04-01T01:22:27.179Z,1.60
2018-04-01T01:24:53.036Z,0.57
2018-04-01T01:27:19.614Z,1.37
2018-04-01T01:29:45.464Z,1.13
2018-04-01T01:32:11.296Z,0.63
2018-04-01T01:34:37.256Z,0.60
2018-04-01T01:37:03.854Z,1.10
2018-04-01T01:39:29.696Z,1.57
2018-04-01T01:41:55.528Z,1.23
2018-04-01T01:44:21.373Z,1.10
2018-04-01T01:46:47.227Z,1.00
2018-04-01T01:49:13.088Z,0.93
2018-04-01T01:51:39.669Z,0.50
2018-04-01T01:54:05.644Z,1.53
2018-04-01T01:56:31.489Z,1.20
2018-04-01T01:58:57.337Z,1.10
2018-04-01T02:01:23.968Z,0.97
2018-04-01T02:03:49.800Z,2.93
2018-04-01T02:06:15.654Z,0.60
2018-04-01T02:08:42.271Z,0.83
2018-04-01T02:11:08.118Z,0.63
2018-04-01T02:13:33.964Z,1.13
2018-04-01T02:16:00.857Z,1.17
2018-04-01T02:18:26.689Z,1.10
2018-04-01T02:20:52.561Z,1.23
2018-04-01T02:23:19.000Z,1.83
2018-04-01T02:25:44.840Z,1.07
2018-04-01T02:28:10.672Z,0.73
2018-04-01T02:30:36.911Z,1.17
2018-04-01T02:33:02.756Z,1.03
2018-04-01T02:35:28.620Z,2.40
2018-04-01T02:37:55.211Z,1.90
2018-04-01T02:40:21.058Z,0.70
2018-04-01T02:42:46.876Z,1.70
2018-04-01T02:45:13.022Z,2.17
2018-04-01T02:47:38.974Z,2.93
2018-04-01T02:50:04.808Z,1.33
2018-04-01T02:52:30.651Z,1.03
2018-04-01T02:54:57.257Z,1.10
2018-04-01T02:57:23.104Z,1.70
2018-04-01T02:59:49.024Z,3.50
2018-04-01T03:02:14.853Z,2.90
2018-04-01T03:04:40.697Z,2.97
2018-04-01T03:07:06.568Z,1.23
2018-04-01T03:09:33.157Z,1.20
2018-04-01T03:11:58.992Z,2.63
2018-04-01T03:14:24.852Z,0.90
2018-04-01T03:16:50.696Z,1.30
2018-04-01T03:19:16.524Z,1.30
2018-04-01T03:21:42.547Z,1.87
2018-04-01T03:24:08.380Z,2.90
2018-04-01T03:26:34.208Z,1.10
2018-04-01T03:29:00.052Z,2.43
2018-04-01T03:31:25.897Z,1.33
2018-04-01T03:33:51.748Z,3.20
2018-04-01T03:36:17.648Z,3.80
2018-04-01T03:38:43.472Z,1.40
2018-04-01T03:41:09.311Z,1.93
2018-04-01T03:43:35.346Z,2.73
2018-04-01T03:46:01.176Z,1.50
2018-04-01T03:48:27.235Z,1.50
2018-04-01T03:50:53.848Z,2.57
2018-04-01T03:53:19.700Z,2.37
2018-04-01T03:55:45.528Z,3.77
2018-04-01T03:58:11.390Z,1.93
2018-04-01T04:00:37.964Z,2.67
2018-04-01T04:03:03.812Z,3.27
2018-04-01T04:05:29.764Z,3.27
2018-04-01T04:07:55.592Z,3.03
2018-04-01T04:10:21.440Z,2.97
2018-04-01T04:12:47.292Z,1.63
2018-04-01T04:15:13.125Z,3.80
2018-04-01T04:17:39.022Z,3.27
2018-04-01T04:20:04.904Z,3.13
2018-04-01T04:22:31.472Z,3.70
2018-04-01T04:24:57.297Z,4.23
2018-04-01T04:27:23.928Z,4.33
2018-04-01T04:29:49.784Z,3.37
2018-04-01T04:32:15.622Z,3.23
2018-04-01T04:34:41.532Z,4.77
2018-04-01T04:37:08.101Z,5.03
2018-04-01T04:39:33.932Z,7.13
2018-04-01T04:41:59.784Z,7.57
2018-04-01T04:44:25.626Z,6.53
2018-04-01T04:46:57.688Z,9.17
2018-04-01T04:49:23.612Z,6.37
2018-04-01T04:51:49.456Z,4.20
2018-04-01T04:54:15.302Z,3.77
2018-04-01T04:56:41.181Z,6.23
2018-04-01T04:59:07.006Z,5.20
2018-04-01T05:01:32.848Z,3.27
2018-04-01T05:03:58.680Z,6.20
2018-04-01T05:06:24.499Z,5.13
2018-04-01T05:08:50.359Z,3.43
2018-04-01T05:11:16.939Z,4.23
2018-04-01T05:13:42.768Z,3.53
2018-04-01T05:16:08.597Z,4.90
2018-04-01T05:18:34.612Z,3.67
2018-04-01T05:21:01.180Z,4.20
2018-04-01T05:23:27.019Z,4.30
2018-04-01T05:25:53.291Z,3.93
2018-04-01T05:28:19.152Z,5.43
2018-04-01T05:30:44.957Z,3.70
2018-04-01T05:33:11.033Z,3.50
2018-04-01T05:35:36.875Z,4.30
2018-04-01T05:38:02.747Z,4.13
2018-04-01T05:40:28.624Z,5.50
2018-04-01T05:42:55.212Z,4.17
2018-04-01T05:45:21.052Z,6.77
2018-04-01T05:47:46.931Z,3.30
2018-04-01T05:50:13.504Z,3.30
2018-04-01T05:52:39.336Z,2.60
2018-04-01T05:55:05.167Z,7.63
2018-04-01T05:57:31.000Z,7.07
2018-04-01T05:59:56.835Z,4.93
2018-04-01T06:02:22.729Z,4.60
2018-04-01T06:04:48.574Z,7.33
2018-04-01T06:07:15.141Z,6.90
2018-04-01T06:09:41.228Z,4.97
2018-04-01T06:12:07.068Z,5.13
2018-04-01T06:14:32.904Z,4.73
2018-04-01T06:16:58.760Z,7.87
2018-04-01T06:19:25.335Z,8.87
2018-04-01T06:21:51.216Z,5.87
2018-04-01T06:24:17.092Z,6.80
2018-04-01T06:26:42.920Z,4.07
2018-04-01T06:29:08.735Z,3.83
2018-04-01T06:31:35.366Z,3.10
2018-04-01T06:34:01.242Z,4.90
2018-04-01T06:36:27.049Z,3.60
2018-04-01T06:38:53.648Z,3.97
2018-04-01T06:41:19.476Z,7.87
2018-04-01T06:43:45.305Z,4.53
2018-04-01T06:46:11.367Z,4.77
2018-04-01T06:48:37.219Z,3.77
2018-04-01T06:51:03.054Z,3.53
2018-04-01T06:53:28.905Z,6.50
2018-04-01T06:56:02.674Z,4.43
2018-04-01T06:58:28.500Z,4.77
2018-04-01T07:00:54.336Z,6.77
2018-04-01T07:03:20.192Z,5.50
2018-04-01T07:05:46.054Z,5.77
2018-04-01T07:08:11.876Z,5.73
2018-04-01T07:10:38.444Z,11.27
2018-04-01T07:13:04.292Z,6.27
2018-04-01T07:15:30.117Z,7.37
2018-04-01T07:17:55.944Z,7.17
2018-04-01T07:20:21.815Z,6.70
2018-04-01T07:22:47.659Z,8.50
2018-04-01T07:25:13.495Z,6.60
2018-04-01T07:27:39.365Z,9.37
2018-04-01T07:30:05.183Z,7.87
2018-04-01T07:32:31.744Z,7.07
2018-04-01T07:34:58.458Z,6.93
2018-04-01T07:37:25.791Z,7.33
2018-04-01T07:39:51.643Z,6.43
2018-04-01T07:42:17.490Z,8.53
2018-04-01T07:44:43.320Z,8.70
2018-04-01T07:47:09.898Z,7.83
2018-04-01T07:49:37.120Z,7.60
2018-04-01T07:52:02.956Z,8.93
2018-04-01T07:54:28.788Z,7.00
2018-04-01T07:56:54.652Z,8.67
2018-04-01T07:59:21.240Z,10.67
2018-04-01T08:01:47.074Z,7.87
2018-04-01T08:04:12.942Z,7.73
2018-04-01T08:06:38.788Z,6.90
2018-04-01T08:09:04.617Z,7.87
2018-04-01T08:11:30.492Z,8.20
2018-04-01T08:13:56.316Z,6.67
2018-04-01T08:16:22.158Z,6.90
2018-04-01T08:18:48.030Z,5.97
2018-04-01T08:21:13.849Z,7.40
2018-04-01T08:23:39.693Z,6.97
2018-04-01T08:26:05.545Z,5.67
2018-04-01T08:28:31.384Z,6.63
2018-04-01T08:30:57.964Z,6.73
2018-04-01T08:33:23.844Z,6.63
2018-04-01T08:35:51.164Z,5.87
2018-04-01T08:38:17.004Z,5.90
2018-04-01T08:40:42.883Z,7.07
2018-04-01T08:43:10.204Z,7.17
2018-04-01T08:45:36.044Z,6.30
2018-04-01T08:48:01.885Z,8.07
2018-04-01T08:50:27.861Z,7.20
2018-04-01T08:52:53.695Z,7.07
2018-04-01T08:55:19.557Z,6.37
2018-04-01T08:57:45.387Z,6.47
2018-04-01T09:00:11.212Z,6.67
2018-04-01T09:02:37.920Z,6.23
2018-04-01T09:05:03.753Z,8.37
2018-04-01T09:07:29.580Z,6.53
2018-04-01T09:09:55.432Z,6.93
2018-04-01T09:12:21.271Z,8.00
2018-04-01T09:14:47.113Z,7.33
2018-04-01T09:17:13.741Z,6.20
2018-04-01T09:19:39.584Z,7.00
2018-04-01T09:22:06.156Z,7.20
2018-04-01T09:24:32.775Z,6.50
2018-04-01T09:26:58.627Z,7.30
2018-04-01T09:29:25.211Z,7.17
2018-04-01T09:31:51.073Z,6.90
2018-04-01T09:34:16.921Z,6.70
2018-04-01T09:36:42.751Z,4.97
2018-04-01T09:39:08.601Z,9.90
2018-04-01T09:41:35.168Z,5.27
2018-04-01T09:44:01.003Z,6.40
2018-04-01T09:46:27.916Z,6.30
2018-04-01T09:48:53.748Z,5.97
2018-04-01T09:51:19.792Z,6.23
2018-04-01T09:53:46.122Z,4.33
2018-04-01T09:56:11.980Z,5.70
2018-04-01T09:58:37.804Z,5.50
2018-04-01T10:01:03.896Z,5.53
2018-04-01T10:03:29.843Z,4.97
2018-04-01T10:05:55.821Z,14.93
2018-04-01T10:08:21.927Z,4.77
2018-04-01T10:10:47.893Z,2.63
2018-04-01T10:13:13.840Z,2.67
2018-04-01T10:15:41.162Z,3.80
2018-04-01T10:18:07.128Z,2.67
2018-04-01T10:20:33.180Z,2.60
2018-04-01T10:22:59.892Z,2.93
2018-04-01T10:25:25.860Z,2.47
2018-04-01T10:27:52.579Z,3.00
2018-04-01T10:30:18.773Z,2.10
2018-04-01T10:32:44.738Z,1.57
2018-04-01T10:35:10.720Z,1.67
2018-04-01T10:37:37.544Z,2.33
2018-04-01T10:40:03.508Z,2.07
2018-04-01T10:42:29.461Z,1.60
2018-04-01T10:44:56.200Z,2.63
2018-04-01T10:47:22.924Z,2.53
2018-04-01T10:49:48.897Z,6.27
2018-04-01T10:52:15.820Z,4.00
2018-04-01T10:54:41.648Z,2.77
2018-04-01T10:57:07.481Z,4.00
2018-04-01T10:59:33.516Z,2.37
2018-04-01T11:01:59.340Z,2.57
2018-04-01T11:04:25.164Z,2.10
2018-04-01T11:06:51.012Z,3.40
2018-04-01T11:09:16.845Z,3.03
2018-04-01T11:11:42.700Z,2.20
2018-04-01T11:14:08.557Z,2.00
2018-04-01T11:16:35.124Z,2.03
2018-04-01T11:19:00.952Z,2.40
2018-04-01T11:21:26.828Z,2.20
2018-04-01T11:23:52.669Z,2.83
2018-04-01T11:26:18.512Z,3.00
2018-04-01T11:28:44.357Z,2.93
2018-04-01T11:31:10.933Z,2.53
2018-04-01T11:33:36.764Z,1.97
2018-04-01T11:36:02.663Z,2.93
2018-04-01T11:38:29.236Z,2.63
2018-04-01T11:40:55.072Z,2.30
2018-04-01T11:43:20.924Z,5.23
2018-04-01T11:45:46.752Z,3.70
2018-04-01T11:48:12.592Z,2.40
2018-04-01T11:50:38.648Z,2.17
2018-04-01T11:53:04.612Z,2.30
2018-04-01T11:55:31.197Z,2.23
2018-04-01T11:57:57.064Z,1.97
2018-04-01T12:00:22.916Z,2.80
2018-04-01T12:02:48.767Z,4.27
2018-04-01T12:05:15.483Z,3.67
2018-04-01T12:07:41.316Z,3.23
2018-04-01T12:10:07.176Z,2.90
2018-04-01T12:12:33.785Z,3.03
2018-04-01T12:14:59.620Z,2.90
2018-04-01T12:17:25.456Z,2.80
2018-04-01T12:19:51.380Z,2.77
2018-04-01T12:22:17.215Z,3.17
2018-04-01T12:24:43.045Z,2.63
2018-04-01T12:27:09.095Z,3.47
2018-04-01T12:29:34.934Z,3.10
2018-04-01T12:32:01.504Z,3.10
2018-04-01T12:34:28.227Z,2.10
2018-04-01T12:36:54.091Z,2.43
2018-04-01T12:39:19.958Z,2.33
2018-04-01T12:41:45.812Z,2.83
2018-04-01T12:44:11.664Z,2.53
2018-04-01T12:46:37.497Z,2.77
2018-04-01T12:49:03.347Z,2.10
2018-04-01T12:51:29.163Z,3.47
2018-04-01T12:53:55.546Z,3.27
2018-04-01T12:56:22.248Z,2.30
2018-04-01T12:58:48.083Z,3.30
2018-04-01T13:01:13.912Z,2.43
2018-04-01T13:03:39.768Z,2.07
2018-04-01T13:06:05.599Z,3.00
2018-04-01T13:08:31.429Z,2.37
2018-04-01T13:10:57.451Z,3.93
2018-04-01T13:13:23.306Z,2.10
2018-04-01T13:15:49.162Z,3.27
2018-04-01T13:18:15.036Z,2.20
2018-04-01T13:20:40.886Z,4.57
2018-04-01T13:23:06.728Z,3.30
2018-04-01T13:25:32.598Z,2.87
2018-04-01T13:27:58.429Z,3.17
2018-04-01T13:30:24.290Z,3.57
2018-04-01T13:32:50.252Z,2.30
2018-04-01T13:35:16.099Z,2.47
2018-04-01T13:37:42.668Z,2.77
2018-04-01T13:40:08.512Z,3.17
2018-04-01T13:42:34.368Z,2.30
2018-04-01T13:45:00.212Z,3.77
2018-04-01T13:47:26.171Z,2.17
2018-04-01T13:49:52.063Z,2.67
2018-04-01T13:52:17.909Z,3.73
2018-04-01T13:54:44.164Z,2.90
2018-04-01T13:57:10.000Z,2.83
2018-04-01T13:59:35.836Z,3.60
2018-04-01T14:02:01.684Z,3.43
2018-04-01T14:04:27.510Z,2.90
2018-04-01T14:06:53.353Z,3.80
2018-04-01T14:09:19.978Z,2.87
2018-04-01T14:11:45.825Z,3.37
2018-04-01T14:14:11.648Z,3.87
2018-04-01T14:16:37.492Z,3.47
2018-04-01T14:19:03.328Z,4.60
2018-04-01T14:21:29.143Z,2.70
2018-04-01T14:23:55.029Z,3.03
2018-04-01T14:26:20.876Z,2.80
2018-04-01T14:28:46.703Z,3.97
2018-04-01T14:31:12.572Z,2.50
2018-04-01T14:33:38.408Z,3.73
2018-04-01T14:36:04.257Z,4.40
2018-04-01T14:38:31.035Z,3.60
2018-04-01T14:40:56.829Z,2.87
2018-04-01T14:43:24.196Z,2.20
2018-04-01T14:45:50.081Z,1.53
2018-04-01T14:48:15.912Z,2.23
2018-04-01T14:50:41.736Z,3.13
2018-04-01T14:53:07.600Z,2.33
2018-04-01T14:55:33.449Z,2.60
2018-04-01T14:57:59.284Z,2.33
2018-04-01T15:00:25.125Z,2.60
2018-04-01T15:02:50.969Z,3.43
2018-04-01T15:05:17.540Z,4.43
2018-04-01T15:07:43.474Z,2.80
2018-04-01T15:10:09.296Z,3.80
2018-04-01T15:12:35.860Z,3.10
2018-04-01T15:15:01.702Z,3.20
2018-04-01T15:17:27.523Z,3.30
2018-04-01T15:19:53.384Z,3.30
2018-04-01T15:22:19.291Z,3.30
2018-04-01T15:24:45.116Z,4.30
2018-04-01T15:27:10.940Z,4.60
2018-04-01T15:29:36.812Z,3.97
2018-04-01T15:32:02.640Z,5.50
2018-04-01T15:34:28.473Z,5.13
2018-04-01T15:36:54.368Z,6.60
2018-04-01T15:39:21.101Z,5.57
2018-04-01T15:41:46.931Z,4.80
2018-04-01T15:44:15.092Z,6.10
2018-04-01T15:46:40.941Z,6.53
2018-04-01T15:49:06.777Z,5.87
2018-04-01T15:51:32.660Z,6.87
2018-04-01T15:53:58.497Z,7.03
2018-04-01T15:56:24.352Z,8.97
2018-04-01T15:58:50.217Z,8.30
2018-04-01T16:01:16.799Z,7.90
2018-04-01T16:03:42.631Z,7.50
2018-04-01T16:06:08.491Z,6.77
2018-04-01T16:08:34.510Z,6.27
2018-04-01T16:11:01.049Z,6.67
2018-04-01T16:13:26.896Z,7.03
2018-04-01T16:15:52.735Z,5.17
2018-04-01T16:18:18.612Z,6.47
2018-04-01T16:20:45.192Z,7.07
2018-04-01T16:23:11.024Z,6.90
2018-04-01T16:25:36.896Z,6.87
2018-04-01T16:28:02.736Z,8.63
2018-04-01T16:30:28.580Z,6.40
2018-04-01T16:32:54.449Z,7.93
2018-04-01T16:35:27.440Z,7.93
2018-04-01T16:37:54.052Z,7.67
2018-04-01T16:40:19.942Z,6.63
2018-04-01T16:42:45.776Z,6.53
2018-04-01T16:45:11.607Z,6.83
2018-04-01T16:47:37.434Z,6.00
2018-04-01T16:50:03.608Z,7.40
2018-04-01T16:52:29.459Z,7.00
2018-04-01T16:54:55.292Z,6.57
2018-04-01T16:57:21.163Z,9.27
2018-04-01T16:59:47.005Z,8.27
2018-04-01T17:02:12.836Z,7.73
2018-04-01T17:04:38.676Z,9.17
2018-04-01T17:07:04.505Z,9.37
2018-04-01T17:09:30.599Z,7.90
2018-04-01T17:11:57.023Z,8.27
2018-04-01T17:14:22.892Z,7.50
2018-04-01T17:16:49.480Z,8.13
2018-04-01T17:19:15.436Z,9.60
2018-04-01T17:21:41.268Z,9.10
2018-04-01T17:24:07.097Z,9.50
2018-04-01T17:26:33.143Z,10.23
2018-04-01T17:28:58.996Z,7.10
2018-04-01T17:31:24.855Z,9.73
2018-04-01T17:33:51.467Z,10.83
2018-04-01T17:36:17.300Z,7.50
2018-04-01T17:38:43.150Z,12.67
2018-04-01T17:41:09.748Z,10.17
2018-04-01T17:43:35.576Z,9.73
2018-04-01T17:46:01.403Z,10.83
2018-04-01T17:48:27.576Z,11.57
2018-04-01T17:50:53.425Z,10.13
2018-04-01T17:53:19.268Z,10.33
2018-04-01T17:55:45.996Z,11.03
2018-04-01T17:58:11.850Z,9.60
2018-04-01T18:00:37.664Z,8.47
2018-04-01T18:03:03.513Z,11.37
2018-04-01T18:05:29.365Z,11.60
2018-04-01T18:07:55.951Z,13.90
2018-04-01T18:10:21.867Z,10.80
2018-04-01T18:12:47.716Z,13.60
2018-04-01T18:15:13.588Z,15.00
2018-04-01T18:17:39.495Z,15.67
2018-04-01T18:20:05.284Z,16.40
2018-04-01T18:22:31.117Z,17.10
2018-04-01T18:24:57.000Z,15.80
2018-04-01T18:27:22.882Z,19.83
2018-04-01T18:29:48.718Z,18.37
2018-04-01T18:32:14.597Z,19.20
2018-04-01T18:34:41.916Z,18.80
2018-04-01T18:37:07.740Z,18.33
2018-04-01T18:39:33.618Z,20.50
2018-04-01T18:41:59.451Z,14.73
2018-04-01T18:44:25.293Z,19.70
2018-04-01T18:46:51.144Z,19.37
2018-04-01T18:49:17.880Z,22.57
2018-04-01T18:51:43.715Z,18.97
2018-04-01T18:54:09.576Z,24.80
2018-04-01T18:56:36.192Z,25.83
2018-04-01T18:59:02.048Z,27.57
2018-04-01T19:01:27.905Z,26.87
2018-04-01T19:03:53.758Z,21.83
2018-04-01T19:06:19.641Z,23.90
2018-04-01T19:08:45.657Z,28.97
2018-04-01T19:11:11.489Z,26.83
2018-04-01T19:13:37.316Z,27.07
2018-04-01T19:16:03.322Z,23.57
2018-04-01T19:18:29.272Z,26.60
2018-04-01T19:20:55.232Z,22.60
2018-04-01T19:23:21.364Z,20.10
2018-04-01T19:25:47.336Z,24.73
2018-04-01T19:28:14.038Z,21.87
2018-04-01T19:30:40.036Z,23.50
2018-04-01T19:33:05.992Z,30.53
2018-04-01T19:35:31.940Z,23.53
2018-04-01T19:37:58.159Z,20.73
2018-04-01T19:40:24.067Z,21.17
2018-04-01T19:42:50.827Z,20.27
2018-04-01T19:45:16.837Z,18.87
2018-04-01T19:47:42.805Z,22.53
2018-04-01T19:50:08.785Z,22.97
2018-04-01T19:52:34.747Z,26.43
2018-04-01T19:55:00.710Z,24.93
2018-04-01T19:57:26.673Z,19.73
2018-04-01T19:59:52.648Z,27.17
2018-04-01T20:02:18.640Z,21.27
2018-04-01T20:04:44.624Z,20.30
2018-04-01T20:07:11.579Z,24.93
2018-04-01T20:09:37.532Z,22.90
2018-04-01T20:12:04.244Z,24.33
2018-04-01T20:14:30.255Z,23.13
2018-04-01T20:16:56.227Z,26.40
2018-04-01T20:19:22.208Z,26.43
2018-04-01T20:21:48.192Z,24.93
2018-04-01T20:24:14.173Z,24.33
2018-04-01T20:26:40.133Z,28.13
2018-04-01T20:29:06.124Z,30.17
2018-04-01T20:31:32.868Z,30.03
2018-04-01T20:33:58.832Z,31.47
2018-04-01T20:36:24.947Z,32.57
2018-04-01T20:38:50.926Z,28.90
2018-04-01T20:41:16.899Z,29.90
2018-04-01T20:43:42.892Z,29.37
2018-04-01T20:46:08.860Z,29.17
2018-04-01T20:48:34.812Z,28.87
2018-04-01T20:51:02.260Z,29.47
2018-04-01T20:53:28.241Z,26.67
2018-04-01T20:55:55.009Z,26.00
2018-04-01T20:58:21.018Z,31.83
2018-04-01T21:00:47.725Z,36.17
2018-04-01T21:03:13.683Z,31.17
2018-04-01T21:05:39.680Z,29.80
2018-04-01T21:08:05.703Z,27.97
2018-04-01T21:10:31.660Z,33.40
2018-04-01T21:12:57.660Z,34.03
2018-04-01T21:15:24.468Z,33.77
2018-04-01T21:17:50.448Z,33.23
2018-04-01T21:20:17.209Z,34.90
2018-04-01T21:22:43.192Z,29.50
2018-04-01T21:25:09.176Z,32.80
2018-04-01T21:27:35.923Z,38.53
2018-04-01T21:30:02.630Z,34.47
2018-04-01T21:32:28.613Z,40.37
2018-04-01T21:34:55.532Z,36.60
2018-04-01T21:37:21.514Z,38.67
2018-04-01T21:39:48.240Z,37.93
2018-04-01T21:42:15.021Z,34.87
2018-04-01T21:44:42.416Z,41.00
2018-04-01T21:47:08.376Z,35.63
2018-04-01T21:49:34.516Z,34.87
2018-04-01T21:52:00.504Z,36.00
2018-04-01T21:54:26.461Z,43.37
2018-04-01T21:56:52.508Z,33.53
2018-04-01T21:59:18.512Z,37.07
2018-04-01T22:01:44.478Z,34.83
2018-04-01T22:04:10.464Z,35.93
2018-04-01T22:06:37.159Z,39.43
2018-04-01T22:09:03.144Z,41.83
2018-04-01T22:11:29.119Z,38.33
2018-04-01T22:13:55.193Z,42.87
2018-04-01T22:16:21.216Z,42.90
2018-04-01T22:18:47.222Z,39.37
2018-04-01T22:21:13.194Z,36.67
2018-04-01T22:23:39.152Z,38.77
2018-04-01T22:26:05.152Z,37.47
2018-04-01T22:28:31.108Z,35.93
2018-04-01T22:30:57.061Z,38.17
2018-04-01T22:33:23.044Z,40.33
2018-04-01T22:35:49.025Z,44.27
2018-04-01T22:38:14.985Z,40.37
2018-04-01T22:40:41.910Z,45.80
2018-04-01T22:43:07.876Z,44.93
2018-04-01T22:45:34.605Z,42.27
2018-04-01T22:48:00.599Z,40.93
2018-04-01T22:50:26.568Z,42.67
2018-04-01T22:52:52.551Z,44.20
2018-04-01T22:55:18.541Z,36.97
2018-04-01T22:57:44.494Z,36.43
2018-04-01T23:00:11.212Z,43.00
2018-04-01T23:02:37.430Z,42.30
2018-04-01T23:05:03.396Z,41.70
2018-04-01T23:07:29.443Z,42.63
2018-04-01T23:09:55.435Z,42.63
2018-04-01T23:12:21.416Z,44.37
2018-04-01T23:14:47.375Z,39.13
2018-04-01T23:17:14.142Z,41.27
2018-04-01T23:19:40.116Z,44.57
2018-04-01T23:22:06.071Z,40.63
2018-04-01T23:24:32.804Z,46.80
2018-04-01T23:26:58.768Z,45.93
2018-04-01T23:29:24.723Z,45.63
2018-04-01T23:31:51.468Z,43.50
2018-04-01T23:34:18.166Z,46.53
2018-04-01T23:36:44.128Z,48.83
2018-04-01T23:39:10.260Z,42.90
2018-04-01T23:41:36.220Z,48.67
2018-04-01T23:44:02.940Z,47.87
2018-04-01T23:46:28.972Z,49.67
2018-04-01T23:48:54.942Z,46.60
2018-04-01T23:51:20.908Z,44.93
2018-04-01T23:53:46.875Z,46.90
2018-04-01T23:56:12.824Z,44.73
2018-04-01T23:58:38.810Z,49.67
